createdAt,value
2018-07-17T00:00:26.403Z,57.06
2018-07-17T00:02:56.518Z,57.63
2018-07-17T00:05:26.154Z,57.81
2018-07-17T00:07:56.060Z,56.55
2018-07-17T00:10:26.557Z,58.06
2018-07-17T00:12:56.284Z,56.73
2018-07-17T00:15:26.025Z,58.11
2018-07-17T00:17:55.970Z,57.42
2018-07-17T00:20:25.624Z,57.89
2018-07-17T00:22:55.271Z,56.55
2018-07-17T00:25:24.928Z,56.54
2018-07-17T00:27:54.634Z,56.62
2018-07-17T00:30:24.270Z,56.62
2018-07-17T00:32:54.162Z,55.97
2018-07-17T00:35:23.791Z,56.36
2018-07-17T00:37:53.405Z,55.74
2018-07-17T00:40:23.515Z,56.01
2018-07-17T00:42:53.923Z,56.32
2018-07-17T00:45:23.596Z,56.42
2018-07-17T00:47:53.456Z,57.84
2018-07-17T00:50:23.366Z,58.29
2018-07-17T00:52:53.744Z,58.23
2018-07-17T00:55:23.414Z,58.51
2018-07-17T00:57:53.228Z,58.94
2018-07-17T01:00:26.996Z,59.28
2018-07-17T01:03:01.950Z,58.63
2018-07-17T01:05:37.283Z,59.39
2018-07-17T01:08:12.033Z,60.11
2018-07-17T01:10:46.759Z,61.16
2018-07-17T01:13:23.530Z,60.39
2018-07-17T01:15:53.613Z,61.40
2018-07-17T01:18:23.516Z,61.71
2018-07-17T01:20:53.192Z,61.56
2018-07-17T01:23:23.184Z,61.12
2018-07-17T01:25:52.813Z,60.93
2018-07-17T01:28:22.602Z,61.68
2018-07-17T01:30:52.235Z,61.83
2018-07-17T01:33:22.114Z,62.30
2018-07-17T01:35:51.788Z,62.60
2018-07-17T01:38:21.525Z,62.20
2018-07-17T01:40:51.124Z,63.27
2018-07-17T01:43:20.783Z,63.66
2018-07-17T01:45:50.936Z,63.13
2018-07-17T01:48:21.312Z,63.58
2018-07-17T01:50:51.142Z,63.45
2018-07-17T01:53:20.813Z,64.23
2018-07-17T01:55:50.407Z,64.51
2018-07-17T01:58:20.385Z,65.33
2018-07-17T02:00:50.729Z,64.84
2018-07-17T02:03:20.597Z,65.30
2018-07-17T02:05:50.754Z,65.58
2018-07-17T02:08:20.413Z,66.26
2018-07-17T02:10:50.007Z,66.12
2018-07-17T02:13:19.580Z,64.54
2018-07-17T02:15:49.599Z,64.51
2018-07-17T02:18:19.989Z,65.16
2018-07-17T02:20:49.620Z,66.16
2018-07-17T02:23:19.921Z,66.17
2018-07-17T02:25:49.600Z,67.76
2018-07-17T02:28:19.177Z,67.71
2018-07-17T02:30:48.787Z,67.46
2018-07-17T02:33:18.365Z,67.70
2018-07-17T02:35:47.997Z,67.76
2018-07-17T02:38:17.622Z,67.84
2018-07-17T02:40:47.362Z,68.19
2018-07-17T02:43:16.966Z,67.55
2018-07-17T02:45:46.672Z,67.71
2018-07-17T02:48:16.434Z,68.81
2018-07-17T02:50:46.650Z,68.81
2018-07-17T02:53:16.948Z,69.97
2018-07-17T02:55:46.538Z,69.38
2018-07-17T02:58:15.892Z,70.40
2018-07-17T03:00:45.732Z,69.62
2018-07-17T03:03:15.566Z,69.95
2018-07-17T03:05:51.971Z,70.09
2018-07-17T03:08:21.688Z,70.34
2018-07-17T03:10:51.391Z,70.52
2018-07-17T03:13:21.084Z,70.52
2018-07-17T03:15:50.711Z,71.30
2018-07-17T03:18:20.934Z,71.42
2018-07-17T03:20:50.759Z,70.91
2018-07-17T03:23:20.395Z,70.85
2018-07-17T03:25:50.267Z,70.47
2018-07-17T03:28:20.533Z,70.41
2018-07-17T03:30:50.945Z,70.56
2018-07-17T03:33:20.652Z,70.87
2018-07-17T03:35:51.227Z,70.63
2018-07-17T03:38:21.074Z,71.25
2018-07-17T03:40:51.448Z,71.79
2018-07-17T03:43:21.226Z,71.25
2018-07-17T03:45:51.161Z,71.61
2018-07-17T03:48:20.902Z,71.36
2018-07-17T03:50:51.272Z,70.17
2018-07-17T03:53:20.998Z,70.33
2018-07-17T03:55:50.711Z,70.60
2018-07-17T03:58:20.942Z,70.10
2018-07-17T04:00:50.926Z,70.88
2018-07-17T04:03:20.945Z,70.27
2018-07-17T04:05:50.684Z,69.18
2018-07-17T04:08:20.495Z,69.10
2018-07-17T04:10:50.217Z,66.23
2018-07-17T04:13:20.058Z,65.06
2018-07-17T04:15:49.774Z,62.83
2018-07-17T04:18:20.180Z,62.52
2018-07-17T04:20:49.963Z,62.92
2018-07-17T04:23:19.757Z,65.44
2018-07-17T04:25:50.229Z,59.64
2018-07-17T04:28:23.128Z,52.07
2018-07-17T04:30:52.913Z,44.80
2018-07-17T04:33:22.761Z,42.13
2018-07-17T04:35:52.332Z,41.92
2018-07-17T04:38:22.319Z,46.03
2018-07-17T04:40:52.115Z,45.14
2018-07-17T04:43:21.971Z,40.08
2018-07-17T04:45:52.417Z,35.39
2018-07-17T04:48:22.147Z,35.95
2018-07-17T04:50:51.500Z,34.90
2018-07-17T04:53:21.516Z,34.50
2018-07-17T04:55:51.178Z,31.89
2018-07-17T04:58:21.234Z,33.21
2018-07-17T05:00:51.012Z,35.36
2018-07-17T05:03:21.041Z,34.50
2018-07-17T05:05:50.893Z,30.65
2018-07-17T05:08:20.915Z,28.66
2018-07-17T05:10:50.574Z,30.53
2018-07-17T05:13:20.133Z,31.23
2018-07-17T05:15:50.367Z,31.79
2018-07-17T05:18:20.332Z,33.85
2018-07-17T05:20:50.069Z,33.09
2018-07-17T05:23:20.052Z,38.30
2018-07-17T05:25:49.817Z,41.36
2018-07-17T05:28:19.680Z,40.29
2018-07-17T05:30:49.719Z,40.00
2018-07-17T05:33:19.455Z,40.75
2018-07-17T05:35:49.674Z,37.71
2018-07-17T05:38:19.555Z,37.74
2018-07-17T05:40:49.213Z,36.19
2018-07-17T05:43:19.159Z,33.29
2018-07-17T05:45:49.561Z,30.47
2018-07-17T05:48:19.244Z,29.89
2018-07-17T05:50:49.016Z,31.80
2018-07-17T05:53:19.075Z,33.24
2018-07-17T05:55:49.303Z,31.28
2018-07-17T05:58:19.718Z,31.93
2018-07-17T06:00:49.626Z,31.59
2018-07-17T06:03:19.418Z,31.25
2018-07-17T06:05:49.059Z,28.26
2018-07-17T06:08:23.378Z,30.84
2018-07-17T06:10:53.304Z,30.72
2018-07-17T06:13:23.622Z,31.69
2018-07-17T06:15:54.012Z,29.44
2018-07-17T06:18:23.849Z,28.33
2018-07-17T06:20:53.611Z,29.44
2018-07-17T06:23:23.352Z,28.89
2018-07-17T06:25:53.717Z,28.11
2018-07-17T06:28:23.530Z,27.59
2018-07-17T06:30:53.176Z,27.29
2018-07-17T06:33:23.017Z,24.67
2018-07-17T06:35:52.670Z,22.49
2018-07-17T06:38:22.322Z,21.52
2018-07-17T06:40:51.724Z,24.38
2018-07-17T06:43:21.653Z,24.89
2018-07-17T06:45:51.910Z,25.36
2018-07-17T06:48:21.735Z,23.86
2018-07-17T06:50:51.490Z,24.19
2018-07-17T06:53:21.188Z,24.03
2018-07-17T06:55:51.028Z,24.62
2018-07-17T06:58:20.814Z,26.24
2018-07-17T07:00:50.394Z,24.51
2018-07-17T07:03:20.175Z,24.09
2018-07-17T07:05:49.889Z,27.07
2018-07-17T07:08:19.937Z,25.11
2018-07-17T07:10:49.775Z,26.70
2018-07-17T07:13:19.500Z,25.32
2018-07-17T07:15:49.160Z,26.21
2018-07-17T07:18:18.854Z,24.69
2018-07-17T07:20:48.528Z,26.25
2018-07-17T07:23:18.232Z,25.60
2018-07-17T07:25:47.900Z,26.27
2018-07-17T07:28:17.654Z,25.56
2018-07-17T07:30:47.329Z,25.99
2018-07-17T07:33:17.081Z,25.14
2018-07-17T07:35:46.414Z,25.13
2018-07-17T07:38:16.233Z,23.56
2018-07-17T07:40:46.282Z,24.87
2018-07-17T07:43:16.024Z,26.20
2018-07-17T07:45:45.773Z,23.55
2018-07-17T07:48:15.433Z,22.26
2018-07-17T07:50:45.262Z,23.20
2018-07-17T07:53:14.910Z,24.18
2018-07-17T07:55:44.684Z,23.23
2018-07-17T07:58:14.308Z,27.66
2018-07-17T08:00:44.831Z,22.08
2018-07-17T08:03:14.468Z,23.36
2018-07-17T08:05:44.152Z,25.21
2018-07-17T08:08:13.747Z,26.79
2018-07-17T08:10:43.562Z,23.45
2018-07-17T08:13:13.886Z,23.38
2018-07-17T08:15:43.702Z,22.16
2018-07-17T08:18:13.444Z,23.32
2018-07-17T08:20:43.065Z,23.17
2018-07-17T08:23:12.764Z,22.96
2018-07-17T08:25:42.474Z,21.25
2018-07-17T08:28:12.268Z,22.81
2018-07-17T08:30:42.035Z,25.37
2018-07-17T08:33:11.790Z,21.48
2018-07-17T08:35:41.562Z,23.59
2018-07-17T08:38:16.793Z,23.86
2018-07-17T08:40:46.359Z,25.65
2018-07-17T08:43:16.758Z,26.04
2018-07-17T08:45:46.313Z,25.19
2018-07-17T08:48:16.051Z,23.51
2018-07-17T08:50:46.852Z,24.29
2018-07-17T08:53:16.635Z,21.68
2018-07-17T08:55:46.450Z,22.60
2018-07-17T08:58:16.140Z,24.23
2018-07-17T09:00:46.552Z,23.54
2018-07-17T09:03:16.292Z,23.62
2018-07-17T09:05:45.996Z,23.67
2018-07-17T09:08:15.788Z,23.73
2018-07-17T09:10:45.577Z,24.44
2018-07-17T09:13:15.323Z,25.22
2018-07-17T09:15:45.026Z,25.37
2018-07-17T09:18:14.737Z,21.75
2018-07-17T09:20:44.388Z,20.64
2018-07-17T09:23:14.251Z,23.48
2018-07-17T09:25:43.968Z,25.37
2018-07-17T09:28:13.701Z,22.56
2018-07-17T09:30:48.617Z,24.75
2018-07-17T09:33:19.055Z,26.69
2018-07-17T09:35:48.733Z,25.90
2018-07-17T09:38:18.316Z,26.99
2018-07-17T09:40:47.932Z,26.29
2018-07-17T09:43:17.635Z,26.34
2018-07-17T09:45:47.278Z,26.97
2018-07-17T09:48:17.034Z,28.08
2018-07-17T09:50:46.807Z,27.13
2018-07-17T09:53:16.691Z,28.72
2018-07-17T09:55:46.909Z,29.98
2018-07-17T09:58:16.685Z,29.62
2018-07-17T10:00:52.177Z,26.15
2018-07-17T10:03:21.731Z,26.86
2018-07-17T10:05:51.169Z,25.58
2018-07-17T10:08:21.569Z,25.86
2018-07-17T10:10:51.678Z,26.17
2018-07-17T10:13:22.055Z,26.58
2018-07-17T10:15:52.494Z,25.94
2018-07-17T10:18:22.285Z,27.71
2018-07-17T10:20:51.980Z,25.32
2018-07-17T10:23:21.723Z,25.64
2018-07-17T10:25:51.600Z,28.46
2018-07-17T10:28:21.938Z,28.47
2018-07-17T10:30:51.586Z,28.36
2018-07-17T10:33:21.453Z,26.84
2018-07-17T10:35:51.106Z,27.85
2018-07-17T10:38:20.929Z,29.34
2018-07-17T10:40:51.352Z,28.07
2018-07-17T10:43:21.313Z,24.63
2018-07-17T10:45:51.065Z,26.56
2018-07-17T10:48:20.858Z,26.50
2018-07-17T10:50:50.598Z,25.15
2018-07-17T10:53:20.240Z,25.02
2018-07-17T10:55:50.331Z,24.26
2018-07-17T10:58:20.124Z,26.12
2018-07-17T11:00:49.933Z,24.50
2018-07-17T11:03:20.274Z,23.64
2018-07-17T11:05:50.268Z,25.61
2018-07-17T11:08:20.634Z,25.15
2018-07-17T11:10:50.626Z,22.74
2018-07-17T11:13:20.366Z,22.97
2018-07-17T11:15:50.578Z,26.45
2018-07-17T11:18:20.386Z,26.35
2018-07-17T11:20:50.408Z,27.83
2018-07-17T11:23:21.094Z,27.19
2018-07-17T11:25:51.236Z,26.97
2018-07-17T11:28:20.973Z,26.91
2018-07-17T11:30:51.341Z,27.51
2018-07-17T11:33:21.475Z,27.70
2018-07-17T11:35:51.657Z,26.97
2018-07-17T11:38:22.088Z,25.77
2018-07-17T11:40:52.060Z,26.38
2018-07-17T11:43:21.782Z,25.39
2018-07-17T11:45:51.733Z,26.76
2018-07-17T11:48:21.503Z,26.92
2018-07-17T11:50:51.754Z,26.54
2018-07-17T11:53:21.875Z,25.62
2018-07-17T11:55:51.954Z,27.20
2018-07-17T11:58:21.778Z,27.84
2018-07-17T12:00:51.660Z,28.16
2018-07-17T12:03:21.346Z,27.85
2018-07-17T12:05:52.568Z,28.16
2018-07-17T12:08:22.180Z,28.60
2018-07-17T12:10:52.022Z,27.92
2018-07-17T12:13:22.478Z,28.25
2018-07-17T12:15:52.193Z,29.08
2018-07-17T12:18:21.879Z,28.37
2018-07-17T12:20:51.516Z,28.36
2018-07-17T12:23:21.469Z,27.72
2018-07-17T12:25:51.130Z,27.81
2018-07-17T12:28:20.790Z,27.83
2018-07-17T12:30:50.453Z,26.80
2018-07-17T12:33:20.065Z,27.21
2018-07-17T12:35:49.815Z,26.97
2018-07-17T12:38:19.716Z,27.82
2018-07-17T12:40:49.400Z,27.16
2018-07-17T12:43:19.168Z,26.73
2018-07-17T12:45:48.817Z,26.71
2018-07-17T12:48:18.435Z,27.66
2018-07-17T12:50:48.219Z,27.33
2018-07-17T12:53:17.935Z,27.70
2018-07-17T12:55:47.595Z,27.06
2018-07-17T12:58:17.303Z,27.25
2018-07-17T13:00:47.586Z,27.82
2018-07-17T13:03:17.237Z,27.26
2018-07-17T13:05:46.847Z,27.85
2018-07-17T13:08:17.314Z,27.05
2018-07-17T13:10:47.050Z,28.55
2018-07-17T13:13:16.729Z,28.65
2018-07-17T13:15:46.653Z,28.15
2018-07-17T13:18:16.523Z,28.63
2018-07-17T13:20:46.276Z,28.85
2018-07-17T13:23:16.084Z,28.15
2018-07-17T13:25:45.744Z,27.80
2018-07-17T13:28:16.066Z,28.63
2018-07-17T13:30:45.721Z,27.56
2018-07-17T13:33:15.363Z,27.53
2018-07-17T13:35:45.612Z,26.80
2018-07-17T13:38:15.430Z,28.51
2018-07-17T13:40:45.137Z,28.80
2018-07-17T13:43:14.850Z,28.66
2018-07-17T13:45:44.535Z,27.73
2018-07-17T13:48:14.298Z,28.78
2018-07-17T13:50:44.030Z,27.74
2018-07-17T13:53:13.889Z,27.38
2018-07-17T13:55:43.701Z,27.87
2018-07-17T13:58:13.335Z,27.51
2018-07-17T14:00:43.710Z,26.30
2018-07-17T14:03:13.707Z,26.49
2018-07-17T14:05:44.215Z,27.92
2018-07-17T14:08:15.317Z,28.52
2018-07-17T14:10:45.929Z,28.62
2018-07-17T14:13:15.660Z,28.48
2018-07-17T14:15:45.390Z,28.38
2018-07-17T14:18:15.075Z,28.47
2018-07-17T14:20:45.217Z,27.92
2018-07-17T14:23:15.231Z,28.74
2018-07-17T14:25:45.627Z,28.26
2018-07-17T14:28:15.497Z,28.83
2018-07-17T14:30:46.686Z,29.36
2018-07-17T14:33:16.695Z,28.78
2018-07-17T14:35:46.446Z,28.24
2018-07-17T14:38:16.209Z,26.78
2018-07-17T14:40:46.033Z,27.89
2018-07-17T14:43:15.645Z,27.59
2018-07-17T14:45:46.247Z,29.03
2018-07-17T14:48:16.051Z,28.78
2018-07-17T14:50:45.899Z,28.25
2018-07-17T14:53:15.876Z,29.22
2018-07-17T14:55:45.494Z,29.08
2018-07-17T14:58:15.245Z,29.09
2018-07-17T15:00:44.937Z,27.98
2018-07-17T15:03:14.683Z,28.70
2018-07-17T15:05:44.308Z,28.57
2018-07-17T15:08:14.011Z,27.40
2018-07-17T15:10:44.292Z,28.13
2018-07-17T15:13:13.986Z,29.35
2018-07-17T15:15:43.868Z,29.45
2018-07-17T15:18:13.778Z,29.09
2018-07-17T15:20:43.390Z,30.60
2018-07-17T15:23:13.217Z,30.13
2018-07-17T15:25:42.832Z,30.38
2018-07-17T15:28:12.818Z,31.62
2018-07-17T15:30:42.516Z,30.74
2018-07-17T15:33:12.715Z,31.45
2018-07-17T15:35:42.441Z,30.98
2018-07-17T15:38:12.610Z,30.89
2018-07-17T15:40:42.847Z,30.70
2018-07-17T15:43:12.848Z,30.50
2018-07-17T15:45:43.245Z,32.24
2018-07-17T15:48:13.286Z,32.61
2018-07-17T15:50:42.956Z,32.05
2018-07-17T15:53:12.649Z,31.98
2018-07-17T15:55:42.356Z,31.65
2018-07-17T15:58:13.372Z,32.30
2018-07-17T16:00:43.027Z,32.78
2018-07-17T16:03:13.505Z,31.83
2018-07-17T16:05:43.773Z,31.66
2018-07-17T16:08:13.806Z,31.34
2018-07-17T16:10:44.070Z,30.98
2018-07-17T16:13:14.232Z,30.88
2018-07-17T16:15:43.911Z,30.21
2018-07-17T16:18:14.235Z,29.61
2018-07-17T16:20:44.642Z,29.98
2018-07-17T16:23:15.468Z,29.85
2018-07-17T16:25:45.206Z,29.19
2018-07-17T16:28:15.207Z,29.06
2018-07-17T16:30:44.954Z,29.03
2018-07-17T16:33:14.903Z,29.78
2018-07-17T16:35:44.642Z,28.34
2018-07-17T16:38:14.475Z,28.50
2018-07-17T16:40:44.119Z,28.92
2018-07-17T16:43:13.945Z,28.74
2018-07-17T16:45:43.555Z,28.58
2018-07-17T16:48:13.529Z,28.53
2018-07-17T16:50:43.510Z,29.13
2018-07-17T16:53:13.211Z,28.72
2018-07-17T16:55:42.957Z,28.85
2018-07-17T16:58:12.687Z,28.86
2018-07-17T17:00:42.391Z,29.28
2018-07-17T17:03:12.093Z,30.07
2018-07-17T17:05:41.788Z,30.21
2018-07-17T17:08:12.028Z,30.74
2018-07-17T17:10:41.713Z,30.42
2018-07-17T17:13:12.264Z,30.96
2018-07-17T17:15:42.295Z,31.07
2018-07-17T17:18:11.955Z,31.34
2018-07-17T17:20:41.719Z,30.25
2018-07-17T17:23:11.677Z,30.37
2018-07-17T17:25:41.313Z,30.39
2018-07-17T17:28:11.021Z,30.50
2018-07-17T17:30:40.829Z,31.25
2018-07-17T17:33:11.054Z,31.54
2018-07-17T17:35:40.851Z,30.96
2018-07-17T17:38:13.547Z,31.09
2018-07-17T17:40:43.647Z,31.26
2018-07-17T17:43:13.370Z,31.35
2018-07-17T17:45:43.187Z,32.18
2018-07-17T17:48:13.336Z,32.07
2018-07-17T17:50:42.991Z,32.82
2018-07-17T17:53:12.796Z,33.11
2018-07-17T17:55:42.515Z,32.83
2018-07-17T17:58:12.260Z,33.11
2018-07-17T18:00:42.174Z,33.93
2018-07-17T18:03:11.904Z,33.61
2018-07-17T18:05:42.273Z,34.00
2018-07-17T18:08:12.268Z,34.13
2018-07-17T18:10:42.234Z,34.52
2018-07-17T18:13:12.118Z,35.09
2018-07-17T18:15:42.121Z,35.35
2018-07-17T18:18:11.961Z,35.31
2018-07-17T18:20:41.601Z,36.06
2018-07-17T18:23:11.230Z,35.76
2018-07-17T18:25:41.443Z,36.26
2018-07-17T18:28:11.346Z,37.05
2018-07-17T18:30:41.636Z,36.55
2018-07-17T18:33:11.956Z,36.73
2018-07-17T18:35:42.167Z,37.79
2018-07-17T18:38:12.141Z,37.23
2018-07-17T18:40:42.005Z,37.45
2018-07-17T18:43:11.753Z,38.50
2018-07-17T18:45:41.552Z,39.12
2018-07-17T18:48:11.323Z,38.92
2018-07-17T18:50:45.118Z,39.27
2018-07-17T18:53:14.857Z,39.28
2018-07-17T18:55:44.686Z,39.68
2018-07-17T18:58:14.477Z,39.84
2018-07-17T19:00:44.184Z,40.58
2018-07-17T19:03:14.161Z,40.86
2018-07-17T19:05:43.956Z,41.33
2018-07-17T19:08:13.656Z,40.92
2018-07-17T19:10:43.782Z,41.68
2018-07-17T19:13:13.513Z,41.74
2018-07-17T19:15:43.386Z,42.09
2018-07-17T19:18:13.102Z,41.63
2018-07-17T19:20:42.886Z,41.91
2018-07-17T19:23:12.689Z,42.73
2018-07-17T19:25:42.424Z,42.53
2018-07-17T19:28:12.096Z,42.32
2018-07-17T19:30:41.952Z,42.96
2018-07-17T19:33:11.791Z,42.90
2018-07-17T19:35:41.862Z,43.95
2018-07-17T19:38:11.696Z,43.25
2018-07-17T19:40:41.578Z,43.51
2018-07-17T19:43:11.374Z,43.74
2018-07-17T19:45:41.094Z,44.40
2018-07-17T19:48:11.055Z,45.36
2018-07-17T19:50:40.816Z,48.45
2018-07-17T19:53:10.488Z,49.29
2018-07-17T19:55:40.192Z,50.17
2018-07-17T19:58:10.143Z,50.79
2018-07-17T20:00:40.084Z,50.91
2018-07-17T20:03:09.831Z,51.36
2018-07-17T20:05:39.416Z,52.02
2018-07-17T20:08:09.323Z,51.66
2018-07-17T20:10:39.103Z,52.13
2018-07-17T20:13:08.767Z,52.45
2018-07-17T20:15:38.493Z,53.14
2018-07-17T20:18:08.328Z,53.45
2018-07-17T20:20:38.464Z,53.98
2018-07-17T20:23:08.141Z,54.11
2018-07-17T20:25:37.963Z,54.08
2018-07-17T20:28:08.124Z,54.22
2018-07-17T20:30:37.926Z,55.01
2018-07-17T20:33:08.313Z,55.62
2018-07-17T20:35:38.506Z,56.02
2018-07-17T20:38:09.367Z,56.37
2018-07-17T20:40:38.873Z,55.27
2018-07-17T20:43:08.516Z,56.32
2018-07-17T20:45:38.346Z,56.61
2018-07-17T20:48:08.400Z,57.24
2018-07-17T20:50:37.840Z,57.70
2018-07-17T20:53:07.734Z,59.18
2018-07-17T20:55:38.537Z,59.54
2018-07-17T20:58:08.735Z,60.04
2018-07-17T21:00:38.436Z,59.49
2018-07-17T21:03:08.550Z,60.12
2018-07-17T21:05:38.743Z,60.75
2018-07-17T21:08:09.236Z,60.34
2018-07-17T21:10:39.565Z,60.54
2018-07-17T21:13:09.919Z,61.44
2018-07-17T21:15:39.961Z,61.48
2018-07-17T21:18:09.723Z,61.28
2018-07-17T21:20:40.486Z,61.10
2018-07-17T21:23:10.142Z,61.00
2018-07-17T21:25:40.020Z,61.21
2018-07-17T21:28:09.578Z,61.93
2018-07-17T21:30:39.695Z,62.62
2018-07-17T21:33:09.500Z,62.36
2018-07-17T21:35:39.610Z,61.40
2018-07-17T21:38:09.334Z,61.79
2018-07-17T21:40:39.393Z,62.00
2018-07-17T21:43:09.098Z,61.79
2018-07-17T21:45:38.966Z,61.68
2018-07-17T21:48:08.682Z,60.68
2018-07-17T21:50:38.633Z,61.34
2018-07-17T21:53:08.501Z,61.45
2018-07-17T21:55:38.396Z,61.90
2018-07-17T21:58:08.335Z,61.27
2018-07-17T22:00:38.115Z,61.18
2018-07-17T22:03:07.888Z,61.52
2018-07-17T22:05:37.673Z,61.54
2018-07-17T22:08:07.154Z,61.80
2018-07-17T22:10:36.804Z,62.20
2018-07-17T22:13:06.680Z,62.77
2018-07-17T22:15:36.313Z,62.55
2018-07-17T22:18:06.129Z,62.88
2018-07-17T22:20:35.686Z,62.36
2018-07-17T22:23:05.629Z,62.69
2018-07-17T22:25:35.392Z,63.57
2018-07-17T22:28:05.354Z,63.69
2018-07-17T22:30:35.062Z,62.83
2018-07-17T22:33:04.789Z,63.20
2018-07-17T22:35:34.453Z,63.81
2018-07-17T22:38:04.326Z,63.67
2018-07-17T22:40:35.115Z,63.22
2018-07-17T22:43:04.729Z,63.50
2018-07-17T22:45:34.394Z,64.00
2018-07-17T22:48:04.141Z,63.77
2018-07-17T22:50:33.810Z,64.50
2018-07-17T22:53:03.514Z,64.44
2018-07-17T22:55:33.250Z,63.39
2018-07-17T22:58:02.846Z,64.59
2018-07-17T23:00:32.563Z,64.29
2018-07-17T23:03:02.292Z,63.62
2018-07-17T23:05:31.953Z,63.82
2018-07-17T23:08:01.630Z,63.42
2018-07-17T23:10:31.421Z,63.10
2018-07-17T23:13:01.848Z,63.07
2018-07-17T23:15:31.222Z,63.41
2018-07-17T23:18:01.075Z,62.81
2018-07-17T23:20:32.027Z,62.56
2018-07-17T23:23:01.689Z,62.58
2018-07-17T23:25:32.650Z,63.33
2018-07-17T23:28:02.597Z,63.69
2018-07-17T23:30:32.240Z,63.37
2018-07-17T23:33:01.896Z,62.65
2018-07-17T23:35:31.315Z,62.58
2018-07-17T23:38:01.657Z,62.56
2018-07-17T23:40:31.289Z,61.35
2018-07-17T23:43:00.996Z,60.90
2018-07-17T23:45:30.575Z,61.08
2018-07-17T23:48:00.324Z,60.66
2018-07-17T23:50:29.989Z,60.55
2018-07-17T23:52:59.850Z,59.16
2018-07-17T23:55:29.464Z,59.41
2018-07-17T23:57:59.844Z,60.10
